sensor_id;sensor_type;location;lat;lon;timestamp;temperature;humidity
18189;DHT22;9219;50.396;8.546;2022-09-09T00:01:27;18.20;99.90
18189;DHT22;9219;50.396;8.546;2022-09-09T00:04:00;18.30;99.90
18189;DHT22;9219;50.396;8.546;2022-09-09T00:06:33;18.40;99.90
18189;DHT22;9219;50.396;8.546;2022-09-09T00:09:08;18.40;99.90
18189;DHT22;9219;50.396;8.546;2022-09-09T00:11:42;18.40;99.90
18189;DHT22;9219;50.396;8.546;2022-09-09T00:14:18;18.30;99.90
18189;DHT22;9219;50.396;8.546;2022-09-09T00:16:55;18.20;99.90
18189;DHT22;9219;50.396;8.546;2022-09-09T00:22:19;18.40;99.90
18189;DHT22;9219;50.396;8.546;2022-09-09T00:25:13;18.40;99.90
18189;DHT22;9219;50.396;8.546;2022-09-09T00:27:58;18.30;99.90
18189;DHT22;9219;50.396;8.546;2022-09-09T00:30:35;18.40;99.90
18189;DHT22;9219;50.396;8.546;2022-09-09T00:33:11;18.40;99.90
18189;DHT22;9219;50.396;8.546;2022-09-09T00:35:46;18.50;99.90
18189;DHT22;9219;50.396;8.546;2022-09-09T00:38:18;18.50;99.90
18189;DHT22;9219;50.396;8.546;2022-09-09T00:40:51;18.50;99.90
18189;DHT22;9219;50.396;8.546;2022-09-09T00:43:27;18.50;99.90
18189;DHT22;9219;50.396;8.546;2022-09-09T00:46:48;18.40;99.90
18189;DHT22;9219;50.396;8.546;2022-09-09T00:49:26;18.40;99.90
18189;DHT22;9219;50.396;8.546;2022-09-09T00:52:07;18.30;99.90
18189;DHT22;9219;50.396;8.546;2022-09-09T00:54:45;18.30;99.90
18189;DHT22;9219;50.396;8.546;2022-09-09T00:57:24;18.20;99.90
18189;DHT22;9219;50.396;8.546;2022-09-09T00:59:59;18.20;99.90
18189;DHT22;9219;50.396;8.546;2022-09-09T01:02:42;18.00;99.90
18189;DHT22;9219;50.396;8.546;2022-09-09T01:08:17;18.20;99.90
18189;DHT22;9219;50.396;8.546;2022-09-09T01:10:50;18.30;99.90
18189;DHT22;9219;50.396;8.546;2022-09-09T01:13:24;18.10;99.90
18189;DHT22;9219;50.396;8.546;2022-09-09T01:15:53;18.30;99.90
18189;DHT22;9219;50.396;8.546;2022-09-09T01:18:31;18.10;99.90
18189;DHT22;9219;50.396;8.546;2022-09-09T01:21:07;18.00;99.90
18189;DHT22;9219;50.396;8.546;2022-09-09T01:23:45;18.00;99.90
18189;DHT22;9219;50.396;8.546;2022-09-09T01:31:54;18.20;99.90
18189;DHT22;9219;50.396;8.546;2022-09-09T01:34:23;18.30;99.90
18189;DHT22;9219;50.396;8.546;2022-09-09T01:39:59;18.20;99.90
18189;DHT22;9219;50.396;8.546;2022-09-09T01:42:26;18.20;99.90
18189;DHT22;9219;50.396;8.546;2022-09-09T01:44:53;18.10;99.90
18189;DHT22;9219;50.396;8.546;2022-09-09T01:47:27;18.10;99.90
18189;DHT22;9219;50.396;8.546;2022-09-09T01:49:58;18.00;99.90
18189;DHT22;9219;50.396;8.546;2022-09-09T01:52:33;18.00;99.90
18189;DHT22;9219;50.396;8.546;2022-09-09T02:00:12;18.00;99.90
18189;DHT22;9219;50.396;8.546;2022-09-09T02:02:46;18.10;99.90
18189;DHT22;9219;50.396;8.546;2022-09-09T02:05:26;18.20;99.90
18189;DHT22;9219;50.396;8.546;2022-09-09T02:08:00;18.00;99.90
18189;DHT22;9219;50.396;8.546;2022-09-09T02:10:33;18.10;99.90
18189;DHT22;9219;50.396;8.546;2022-09-09T02:13:07;18.10;99.90
18189;DHT22;9219;50.396;8.546;2022-09-09T02:15:43;18.00;99.90
18189;DHT22;9219;50.396;8.546;2022-09-09T02:20:56;18.00;99.90
18189;DHT22;9219;50.396;8.546;2022-09-09T02:23:26;18.00;99.90
18189;DHT22;9219;50.396;8.546;2022-09-09T02:25:57;18.00;99.90
18189;DHT22;9219;50.396;8.546;2022-09-09T02:28:27;18.00;99.90
18189;DHT22;9219;50.396;8.546;2022-09-09T02:30:58;18.10;99.90
18189;DHT22;9219;50.396;8.546;2022-09-09T02:33:28;18.00;99.90
18189;DHT22;9219;50.396;8.546;2022-09-09T02:36:00;18.10;99.90
18189;DHT22;9219;50.396;8.546;2022-09-09T02:43:36;18.00;99.90
18189;DHT22;9219;50.396;8.546;2022-09-09T02:46:10;18.10;99.90
18189;DHT22;9219;50.396;8.546;2022-09-09T02:48:50;18.20;99.90
18189;DHT22;9219;50.396;8.546;2022-09-09T02:51:26;18.10;99.90
18189;DHT22;9219;50.396;8.546;2022-09-09T02:54:04;18.20;99.90
18189;DHT22;9219;50.396;8.546;2022-09-09T02:56:40;18.10;99.90
18189;DHT22;9219;50.396;8.546;2022-09-09T02:59:10;18.10;99.90
18189;DHT22;9219;50.396;8.546;2022-09-09T03:06:43;18.10;99.90
18189;DHT22;9219;50.396;8.546;2022-09-09T03:09:15;18.10;99.90
18189;DHT22;9219;50.396;8.546;2022-09-09T03:11:43;18.10;99.90
18189;DHT22;9219;50.396;8.546;2022-09-09T03:14:10;18.00;99.90
18189;DHT22;9219;50.396;8.546;2022-09-09T03:16:41;18.10;99.90
18189;DHT22;9219;50.396;8.546;2022-09-09T03:19:10;18.10;99.90
18189;DHT22;9219;50.396;8.546;2022-09-09T03:21:37;18.20;99.90
18189;DHT22;9219;50.396;8.546;2022-09-09T03:28:56;18.20;99.90
18189;DHT22;9219;50.396;8.546;2022-09-09T03:31:26;18.30;99.90
18189;DHT22;9219;50.396;8.546;2022-09-09T03:33:56;18.20;99.90
18189;DHT22;9219;50.396;8.546;2022-09-09T03:36:25;18.20;99.90
18189;DHT22;9219;50.396;8.546;2022-09-09T03:38:53;18.10;99.90
18189;DHT22;9219;50.396;8.546;2022-09-09T03:41:21;18.10;99.90
18189;DHT22;9219;50.396;8.546;2022-09-09T03:43:50;18.10;99.90
18189;DHT22;9219;50.396;8.546;2022-09-09T03:48:59;18.00;99.90
18189;DHT22;9219;50.396;8.546;2022-09-09T03:51:27;18.00;99.90
18189;DHT22;9219;50.396;8.546;2022-09-09T03:53:54;18.10;99.90
18189;DHT22;9219;50.396;8.546;2022-09-09T03:56:24;18.20;99.90
18189;DHT22;9219;50.396;8.546;2022-09-09T03:58:51;18.10;99.90
18189;DHT22;9219;50.396;8.546;2022-09-09T04:01:19;18.20;99.90
18189;DHT22;9219;50.396;8.546;2022-09-09T04:03:47;18.30;99.90
18189;DHT22;9219;50.396;8.546;2022-09-09T04:06:17;18.10;99.90
18189;DHT22;9219;50.396;8.546;2022-09-09T04:13:50;18.10;99.90
18189;DHT22;9219;50.396;8.546;2022-09-09T04:16:18;18.30;99.90
18189;DHT22;9219;50.396;8.546;2022-09-09T04:18:46;18.20;99.90
18189;DHT22;9219;50.396;8.546;2022-09-09T04:21:15;18.20;99.90
18189;DHT22;9219;50.396;8.546;2022-09-09T04:23:42;18.10;99.90
18189;DHT22;9219;50.396;8.546;2022-09-09T04:26:10;18.00;99.90
18189;DHT22;9219;50.396;8.546;2022-09-09T04:28:38;17.90;99.90
18189;DHT22;9219;50.396;8.546;2022-09-09T04:31:09;18.00;99.90
18189;DHT22;9219;50.396;8.546;2022-09-09T04:36:18;18.00;99.90
18189;DHT22;9219;50.396;8.546;2022-09-09T04:38:46;17.90;99.90
18189;DHT22;9219;50.396;8.546;2022-09-09T04:41:15;17.90;99.90
18189;DHT22;9219;50.396;8.546;2022-09-09T04:43:44;17.80;99.90
18189;DHT22;9219;50.396;8.546;2022-09-09T04:46:12;17.70;99.90
18189;DHT22;9219;50.396;8.546;2022-09-09T04:48:39;17.70;99.90
18189;DHT22;9219;50.396;8.546;2022-09-09T04:51:12;18.00;99.90
18189;DHT22;9219;50.396;8.546;2022-09-09T04:53:40;17.90;99.90
18189;DHT22;9219;50.396;8.546;2022-09-09T05:01:15;17.70;99.90
18189;DHT22;9219;50.396;8.546;2022-09-09T05:03:43;17.80;99.90
18189;DHT22;9219;50.396;8.546;2022-09-09T05:06:12;17.90;99.90
18189;DHT22;9219;50.396;8.546;2022-09-09T05:08:41;18.00;99.90
18189;DHT22;9219;50.396;8.546;2022-09-09T05:11:17;18.00;99.90
18189;DHT22;9219;50.396;8.546;2022-09-09T05:13:51;18.00;99.90
18189;DHT22;9219;50.396;8.546;2022-09-09T05:16:20;18.10;99.90
18189;DHT22;9219;50.396;8.546;2022-09-09T05:23:55;18.00;99.90
18189;DHT22;9219;50.396;8.546;2022-09-09T05:26:23;18.10;99.90
18189;DHT22;9219;50.396;8.546;2022-09-09T05:28:51;18.10;99.90
18189;DHT22;9219;50.396;8.546;2022-09-09T05:31:18;17.90;99.90
18189;DHT22;9219;50.396;8.546;2022-09-09T05:33:54;18.00;99.90
18189;DHT22;9219;50.396;8.546;2022-09-09T05:36:29;17.90;99.90
18189;DHT22;9219;50.396;8.546;2022-09-09T05:38:57;17.90;99.90
18189;DHT22;9219;50.396;8.546;2022-09-09T05:45:40;17.70;99.90
18189;DHT22;9219;50.396;8.546;2022-09-09T05:48:07;17.90;99.90
18189;DHT22;9219;50.396;8.546;2022-09-09T05:50:35;18.10;99.90
18189;DHT22;9219;50.396;8.546;2022-09-09T05:53:03;18.00;99.90
18189;DHT22;9219;50.396;8.546;2022-09-09T05:55:31;17.90;99.90
18189;DHT22;9219;50.396;8.546;2022-09-09T05:57:58;17.90;99.90
18189;DHT22;9219;50.396;8.546;2022-09-09T06:00:27;18.00;99.90
18189;DHT22;9219;50.396;8.546;2022-09-09T06:03:00;17.90;99.90
18189;DHT22;9219;50.396;8.546;2022-09-09T06:10:34;17.80;99.90
18189;DHT22;9219;50.396;8.546;2022-09-09T06:13:01;17.80;99.90
18189;DHT22;9219;50.396;8.546;2022-09-09T06:15:29;17.80;99.90
18189;DHT22;9219;50.396;8.546;2022-09-09T06:17:58;17.80;99.90
18189;DHT22;9219;50.396;8.546;2022-09-09T06:20:25;17.90;99.90
18189;DHT22;9219;50.396;8.546;2022-09-09T06:22:53;18.00;99.90
18189;DHT22;9219;50.396;8.546;2022-09-09T06:25:20;17.90;99.90
18189;DHT22;9219;50.396;8.546;2022-09-09T06:27:50;18.00;99.90
18189;DHT22;9219;50.396;8.546;2022-09-09T06:38:31;17.90;99.90
18189;DHT22;9219;50.396;8.546;2022-09-09T06:40:59;18.10;99.90
18189;DHT22;9219;50.396;8.546;2022-09-09T06:43:28;18.10;99.90
18189;DHT22;9219;50.396;8.546;2022-09-09T06:45:56;18.10;99.90
18189;DHT22;9219;50.396;8.546;2022-09-09T06:48:25;18.20;99.90
18189;DHT22;9219;50.396;8.546;2022-09-09T06:51:00;18.20;99.90
18189;DHT22;9219;50.396;8.546;2022-09-09T06:53:28;18.20;99.90
18189;DHT22;9219;50.396;8.546;2022-09-09T06:55:57;18.30;99.90
18189;DHT22;9219;50.396;8.546;2022-09-09T07:01:06;18.60;99.90
18189;DHT22;9219;50.396;8.546;2022-09-09T07:03:34;18.70;99.90
18189;DHT22;9219;50.396;8.546;2022-09-09T07:06:02;18.80;99.90
18189;DHT22;9219;50.396;8.546;2022-09-09T07:08:30;18.90;99.90
18189;DHT22;9219;50.396;8.546;2022-09-09T07:11:02;18.80;99.90
18189;DHT22;9219;50.396;8.546;2022-09-09T07:13:37;18.80;99.90
18189;DHT22;9219;50.396;8.546;2022-09-09T07:16:08;18.70;99.90
18189;DHT22;9219;50.396;8.546;2022-09-09T07:18:36;18.80;99.90
18189;DHT22;9219;50.396;8.546;2022-09-09T07:21:17;18.90;99.90
18189;DHT22;9219;50.396;8.546;2022-09-09T07:23:48;19.00;99.90
18189;DHT22;9219;50.396;8.546;2022-09-09T07:26:18;19.10;99.90
18189;DHT22;9219;50.396;8.546;2022-09-09T07:28:53;19.20;99.90
18189;DHT22;9219;50.396;8.546;2022-09-09T07:31:29;19.20;99.90
18189;DHT22;9219;50.396;8.546;2022-09-09T07:34:17;19.10;99.90
18189;DHT22;9219;50.396;8.546;2022-09-09T07:39:25;19.00;99.90
18189;DHT22;9219;50.396;8.546;2022-09-09T07:41:56;19.20;99.90
18189;DHT22;9219;50.396;8.546;2022-09-09T07:44:24;18.90;99.90
18189;DHT22;9219;50.396;8.546;2022-09-09T07:46:53;18.90;99.90
18189;DHT22;9219;50.396;8.546;2022-09-09T07:49:21;19.00;99.90
18189;DHT22;9219;50.396;8.546;2022-09-09T07:51:56;19.30;99.90
18189;DHT22;9219;50.396;8.546;2022-09-09T07:54:25;19.30;99.90
18189;DHT22;9219;50.396;8.546;2022-09-09T07:56:53;19.10;99.90
18189;DHT22;9219;50.396;8.546;2022-09-09T08:04:25;19.20;99.90
18189;DHT22;9219;50.396;8.546;2022-09-09T08:06:56;19.30;99.90
18189;DHT22;9219;50.396;8.546;2022-09-09T08:09:25;19.50;99.90
18189;DHT22;9219;50.396;8.546;2022-09-09T08:11:55;19.70;99.90
18189;DHT22;9219;50.396;8.546;2022-09-09T08:14:27;19.90;99.90
18189;DHT22;9219;50.396;8.546;2022-09-09T08:16:56;20.00;99.90
18189;DHT22;9219;50.396;8.546;2022-09-09T08:19:26;20.00;99.90
18189;DHT22;9219;50.396;8.546;2022-09-09T08:21:55;20.00;99.90
18189;DHT22;9219;50.396;8.546;2022-09-09T08:29:24;19.80;99.90
18189;DHT22;9219;50.396;8.546;2022-09-09T08:31:53;19.80;99.90
18189;DHT22;9219;50.396;8.546;2022-09-09T08:34:22;19.90;99.90
18189;DHT22;9219;50.396;8.546;2022-09-09T08:36:53;20.00;99.90
18189;DHT22;9219;50.396;8.546;2022-09-09T08:39:21;20.20;99.90
18189;DHT22;9219;50.396;8.546;2022-09-09T08:42:17;20.30;99.90
18189;DHT22;9219;50.396;8.546;2022-09-09T08:45:05;20.30;99.90
18189;DHT22;9219;50.396;8.546;2022-09-09T08:52:47;20.20;99.90
18189;DHT22;9219;50.396;8.546;2022-09-09T08:55:25;20.20;99.90
18189;DHT22;9219;50.396;8.546;2022-09-09T08:57:55;20.40;99.90
18189;DHT22;9219;50.396;8.546;2022-09-09T09:00:32;20.40;99.90
18189;DHT22;9219;50.396;8.546;2022-09-09T09:03:09;20.40;99.90
18189;DHT22;9219;50.396;8.546;2022-09-09T09:05:47;20.40;99.90
18189;DHT22;9219;50.396;8.546;2022-09-09T09:08:29;20.60;99.90
18189;DHT22;9219;50.396;8.546;2022-09-09T09:16:06;20.60;99.90
18189;DHT22;9219;50.396;8.546;2022-09-09T09:18:34;20.90;99.90
18189;DHT22;9219;50.396;8.546;2022-09-09T09:21:25;20.90;99.90
18189;DHT22;9219;50.396;8.546;2022-09-09T09:23:58;20.80;99.90
18189;DHT22;9219;50.396;8.546;2022-09-09T09:26:31;20.60;99.90
18189;DHT22;9219;50.396;8.546;2022-09-09T09:29:14;20.40;99.90
18189;DHT22;9219;50.396;8.546;2022-09-09T09:31:50;20.60;99.90
18189;DHT22;9219;50.396;8.546;2022-09-09T09:39:27;20.70;99.90
18189;DHT22;9219;50.396;8.546;2022-09-09T09:42:17;20.80;99.90
18189;DHT22;9219;50.396;8.546;2022-09-09T09:44:49;21.00;99.90
18189;DHT22;9219;50.396;8.546;2022-09-09T09:47:19;21.00;99.90
18189;DHT22;9219;50.396;8.546;2022-09-09T09:49:54;21.20;99.90
18189;DHT22;9219;50.396;8.546;2022-09-09T09:52:23;21.50;99.90
18189;DHT22;9219;50.396;8.546;2022-09-09T09:54:53;21.70;99.90
18189;DHT22;9219;50.396;8.546;2022-09-09T10:05:36;22.00;99.90
18189;DHT22;9219;50.396;8.546;2022-09-09T10:08:12;22.30;99.90
18189;DHT22;9219;50.396;8.546;2022-09-09T10:11:06;22.50;99.90
18189;DHT22;9219;50.396;8.546;2022-09-09T10:13:49;22.80;99.90
18189;DHT22;9219;50.396;8.546;2022-09-09T10:16:29;22.80;99.90
18189;DHT22;9219;50.396;8.546;2022-09-09T10:19:04;22.80;99.90
18189;DHT22;9219;50.396;8.546;2022-09-09T10:22:04;22.90;99.90
18189;DHT22;9219;50.396;8.546;2022-09-09T10:27:40;22.90;99.90
18189;DHT22;9219;50.396;8.546;2022-09-09T10:30:17;23.40;99.90
18189;DHT22;9219;50.396;8.546;2022-09-09T10:32:48;23.40;99.90
18189;DHT22;9219;50.396;8.546;2022-09-09T10:35:25;23.50;99.90
18189;DHT22;9219;50.396;8.546;2022-09-09T10:38:12;23.40;99.90
18189;DHT22;9219;50.396;8.546;2022-09-09T10:40:49;23.40;99.90
18189;DHT22;9219;50.396;8.546;2022-09-09T10:49:14;23.70;99.90
18189;DHT22;9219;50.396;8.546;2022-09-09T10:51:54;23.60;99.90
18189;DHT22;9219;50.396;8.546;2022-09-09T10:54:41;23.60;99.90
18189;DHT22;9219;50.396;8.546;2022-09-09T10:57:21;23.80;99.90
18189;DHT22;9219;50.396;8.546;2022-09-09T10:59:55;23.40;99.90
18189;DHT22;9219;50.396;8.546;2022-09-09T11:02:27;23.50;99.90
18189;DHT22;9219;50.396;8.546;2022-09-09T11:05:00;23.30;99.90
18189;DHT22;9219;50.396;8.546;2022-09-09T11:10:18;23.20;99.90
18189;DHT22;9219;50.396;8.546;2022-09-09T11:12:51;23.20;99.90
18189;DHT22;9219;50.396;8.546;2022-09-09T11:15:25;23.20;99.90
18189;DHT22;9219;50.396;8.546;2022-09-09T11:17:59;23.00;99.90
18189;DHT22;9219;50.396;8.546;2022-09-09T11:20:28;23.00;99.90
18189;DHT22;9219;50.396;8.546;2022-09-09T11:22:59;23.10;99.90
18189;DHT22;9219;50.396;8.546;2022-09-09T11:25:34;22.80;99.90
18189;DHT22;9219;50.396;8.546;2022-09-09T11:36:32;22.90;99.90
18189;DHT22;9219;50.396;8.546;2022-09-09T11:39:17;23.20;99.90
18189;DHT22;9219;50.396;8.546;2022-09-09T11:41:53;23.10;99.90
18189;DHT22;9219;50.396;8.546;2022-09-09T11:44:28;22.90;99.90
18189;DHT22;9219;50.396;8.546;2022-09-09T11:49:43;23.20;99.90
18189;DHT22;9219;50.396;8.546;2022-09-09T11:52:19;23.10;99.90
18189;DHT22;9219;50.396;8.546;2022-09-09T11:59:58;22.70;99.90
18189;DHT22;9219;50.396;8.546;2022-09-09T12:02:28;22.80;99.90
18189;DHT22;9219;50.396;8.546;2022-09-09T12:05:00;22.70;99.90
18189;DHT22;9219;50.396;8.546;2022-09-09T12:07:35;22.40;99.90
18189;DHT22;9219;50.396;8.546;2022-09-09T12:10:22;22.40;99.90
18189;DHT22;9219;50.396;8.546;2022-09-09T12:12:50;22.30;99.90
18189;DHT22;9219;50.396;8.546;2022-09-09T12:21:00;22.30;99.90
18189;DHT22;9219;50.396;8.546;2022-09-09T12:23:40;22.00;99.90
18189;DHT22;9219;50.396;8.546;2022-09-09T12:26:32;22.10;99.90
18189;DHT22;9219;50.396;8.546;2022-09-09T12:29:16;21.90;99.90
18189;DHT22;9219;50.396;8.546;2022-09-09T12:31:51;21.90;99.90
18189;DHT22;9219;50.396;8.546;2022-09-09T12:34:34;21.70;99.90
18189;DHT22;9219;50.396;8.546;2022-09-09T12:37:13;21.70;99.90
18189;DHT22;9219;50.396;8.546;2022-09-09T12:44:59;21.70;99.90
18189;DHT22;9219;50.396;8.546;2022-09-09T12:47:38;21.50;99.90
18189;DHT22;9219;50.396;8.546;2022-09-09T12:50:18;21.60;99.90
18189;DHT22;9219;50.396;8.546;2022-09-09T12:52:50;21.40;99.90
18189;DHT22;9219;50.396;8.546;2022-09-09T12:55:23;21.30;99.90
18189;DHT22;9219;50.396;8.546;2022-09-09T12:57:54;21.30;99.90
18189;DHT22;9219;50.396;8.546;2022-09-09T13:00:24;21.10;99.90
18189;DHT22;9219;50.396;8.546;2022-09-09T13:08:03;21.50;99.90
18189;DHT22;9219;50.396;8.546;2022-09-09T13:10:33;21.90;99.90
18189;DHT22;9219;50.396;8.546;2022-09-09T13:13:22;22.00;99.90
18189;DHT22;9219;50.396;8.546;2022-09-09T13:15:52;21.60;99.90
18189;DHT22;9219;50.396;8.546;2022-09-09T13:18:24;21.90;99.90
18189;DHT22;9219;50.396;8.546;2022-09-09T13:20:53;22.00;99.90
18189;DHT22;9219;50.396;8.546;2022-09-09T13:23:30;22.10;99.90
18189;DHT22;9219;50.396;8.546;2022-09-09T13:26:00;22.10;99.90
18189;DHT22;9219;50.396;8.546;2022-09-09T13:31:22;21.80;99.90
18189;DHT22;9219;50.396;8.546;2022-09-09T13:33:51;21.70;99.90
18189;DHT22;9219;50.396;8.546;2022-09-09T13:36:30;21.70;99.90
18189;DHT22;9219;50.396;8.546;2022-09-09T13:39:03;21.70;99.90
18189;DHT22;9219;50.396;8.546;2022-09-09T13:41:32;21.60;99.90
18189;DHT22;9219;50.396;8.546;2022-09-09T13:44:04;21.70;99.90
18189;DHT22;9219;50.396;8.546;2022-09-09T13:46:35;21.80;99.90
18189;DHT22;9219;50.396;8.546;2022-09-09T13:53:29;22.00;99.90
18189;DHT22;9219;50.396;8.546;2022-09-09T13:55:58;22.30;99.90
18189;DHT22;9219;50.396;8.546;2022-09-09T13:58:26;22.50;99.90
18189;DHT22;9219;50.396;8.546;2022-09-09T14:00:53;22.50;99.90
18189;DHT22;9219;50.396;8.546;2022-09-09T14:03:27;22.50;99.90
18189;DHT22;9219;50.396;8.546;2022-09-09T14:05:54;22.60;99.90
18189;DHT22;9219;50.396;8.546;2022-09-09T14:08:26;22.60;99.90
18189;DHT22;9219;50.396;8.546;2022-09-09T14:11:12;22.50;99.90
18189;DHT22;9219;50.396;8.546;2022-09-09T14:16:48;22.50;99.90
18189;DHT22;9219;50.396;8.546;2022-09-09T14:19:22;22.40;99.90
18189;DHT22;9219;50.396;8.546;2022-09-09T14:21:49;22.20;99.90
18189;DHT22;9219;50.396;8.546;2022-09-09T14:24:23;21.90;99.90
18189;DHT22;9219;50.396;8.546;2022-09-09T14:26:51;21.90;99.90
18189;DHT22;9219;50.396;8.546;2022-09-09T14:29:19;21.70;99.90
18189;DHT22;9219;50.396;8.546;2022-09-09T14:31:50;21.60;99.90
18189;DHT22;9219;50.396;8.546;2022-09-09T14:39:18;21.40;99.90
18189;DHT22;9219;50.396;8.546;2022-09-09T14:41:46;21.40;99.90
18189;DHT22;9219;50.396;8.546;2022-09-09T14:44:17;21.50;99.90
18189;DHT22;9219;50.396;8.546;2022-09-09T14:46:48;21.50;99.90
18189;DHT22;9219;50.396;8.546;2022-09-09T14:49:16;21.40;99.90
18189;DHT22;9219;50.396;8.546;2022-09-09T14:51:44;21.30;99.90
18189;DHT22;9219;50.396;8.546;2022-09-09T14:54:12;21.50;99.90
18189;DHT22;9219;50.396;8.546;2022-09-09T15:01:45;21.40;99.90
18189;DHT22;9219;50.396;8.546;2022-09-09T15:04:16;21.20;99.90
18189;DHT22;9219;50.396;8.546;2022-09-09T15:06:44;21.00;99.90
18189;DHT22;9219;50.396;8.546;2022-09-09T15:09:16;20.80;99.90
18189;DHT22;9219;50.396;8.546;2022-09-09T15:11:44;20.80;99.90
18189;DHT22;9219;50.396;8.546;2022-09-09T15:14:11;21.10;99.90
18189;DHT22;9219;50.396;8.546;2022-09-09T15:16:39;21.00;99.90
18189;DHT22;9219;50.396;8.546;2022-09-09T15:21:48;21.00;99.90
18189;DHT22;9219;50.396;8.546;2022-09-09T15:24:16;20.90;99.90
18189;DHT22;9219;50.396;8.546;2022-09-09T15:26:44;20.80;99.90
18189;DHT22;9219;50.396;8.546;2022-09-09T15:29:11;21.10;99.90
18189;DHT22;9219;50.396;8.546;2022-09-09T15:31:39;21.10;99.90
18189;DHT22;9219;50.396;8.546;2022-09-09T15:34:07;21.00;99.90
18189;DHT22;9219;50.396;8.546;2022-09-09T15:36:37;20.90;99.90
18189;DHT22;9219;50.396;8.546;2022-09-09T15:39:07;20.60;99.90
18189;DHT22;9219;50.396;8.546;2022-09-09T15:46:42;20.30;99.90
18189;DHT22;9219;50.396;8.546;2022-09-09T15:49:11;20.00;99.90
18189;DHT22;9219;50.396;8.546;2022-09-09T15:51:41;20.10;99.90
18189;DHT22;9219;50.396;8.546;2022-09-09T15:54:12;20.10;99.90
18189;DHT22;9219;50.396;8.546;2022-09-09T15:56:41;20.20;99.90
18189;DHT22;9219;50.396;8.546;2022-09-09T15:59:09;20.30;99.90
18189;DHT22;9219;50.396;8.546;2022-09-09T16:01:38;20.50;99.90
18189;DHT22;9219;50.396;8.546;2022-09-09T16:09:09;20.10;99.90
18189;DHT22;9219;50.396;8.546;2022-09-09T16:11:38;19.90;99.90
18189;DHT22;9219;50.396;8.546;2022-09-09T16:14:06;20.00;99.90
18189;DHT22;9219;50.396;8.546;2022-09-09T16:16:37;19.90;99.90
18189;DHT22;9219;50.396;8.546;2022-09-09T16:19:06;20.00;99.90
18189;DHT22;9219;50.396;8.546;2022-09-09T16:21:37;19.80;99.90
18189;DHT22;9219;50.396;8.546;2022-09-09T16:24:07;19.80;99.90
18189;DHT22;9219;50.396;8.546;2022-09-09T16:26:38;19.70;99.90
18189;DHT22;9219;50.396;8.546;2022-09-09T16:29:19;19.70;99.90
18189;DHT22;9219;50.396;8.546;2022-09-09T16:31:48;19.50;99.90
18189;DHT22;9219;50.396;8.546;2022-09-09T16:34:17;19.40;99.90
18189;DHT22;9219;50.396;8.546;2022-09-09T16:36:47;19.30;99.90
18189;DHT22;9219;50.396;8.546;2022-09-09T16:39:19;19.20;99.90
18189;DHT22;9219;50.396;8.546;2022-09-09T16:41:50;19.40;99.90
18189;DHT22;9219;50.396;8.546;2022-09-09T16:44:19;19.30;99.90
18189;DHT22;9219;50.396;8.546;2022-09-09T16:46:48;19.30;99.90
18189;DHT22;9219;50.396;8.546;2022-09-09T16:54:29;19.10;99.90
18189;DHT22;9219;50.396;8.546;2022-09-09T16:56:57;19.10;99.90
18189;DHT22;9219;50.396;8.546;2022-09-09T16:59:25;19.00;99.90
18189;DHT22;9219;50.396;8.546;2022-09-09T17:01:54;18.90;99.90
18189;DHT22;9219;50.396;8.546;2022-09-09T17:04:24;18.90;99.90
18189;DHT22;9219;50.396;8.546;2022-09-09T17:06:53;18.80;99.90
18189;DHT22;9219;50.396;8.546;2022-09-09T17:09:22;18.70;99.90
18189;DHT22;9219;50.396;8.546;2022-09-09T17:14:45;18.70;99.90
18189;DHT22;9219;50.396;8.546;2022-09-09T17:17:15;18.70;99.90
18189;DHT22;9219;50.396;8.546;2022-09-09T17:19:58;18.80;99.90
18189;DHT22;9219;50.396;8.546;2022-09-09T17:22:26;18.80;99.90
18189;DHT22;9219;50.396;8.546;2022-09-09T17:24:55;18.60;99.90
18189;DHT22;9219;50.396;8.546;2022-09-09T17:27:22;18.80;99.90
18189;DHT22;9219;50.396;8.546;2022-09-09T17:29:51;18.70;99.90
18189;DHT22;9219;50.396;8.546;2022-09-09T17:37:20;18.70;99.90
18189;DHT22;9219;50.396;8.546;2022-09-09T17:39:49;18.50;99.90
18189;DHT22;9219;50.396;8.546;2022-09-09T17:42:16;18.50;99.90
18189;DHT22;9219;50.396;8.546;2022-09-09T17:44:45;18.70;99.90
18189;DHT22;9219;50.396;8.546;2022-09-09T17:47:14;18.70;99.90
18189;DHT22;9219;50.396;8.546;2022-09-09T17:49:42;18.50;99.90
18189;DHT22;9219;50.396;8.546;2022-09-09T17:52:09;18.70;99.90
18189;DHT22;9219;50.396;8.546;2022-09-09T17:59:47;18.80;99.90
18189;DHT22;9219;50.396;8.546;2022-09-09T18:02:17;18.80;99.90
18189;DHT22;9219;50.396;8.546;2022-09-09T18:04:45;18.70;99.90
18189;DHT22;9219;50.396;8.546;2022-09-09T18:07:12;18.50;99.90
18189;DHT22;9219;50.396;8.546;2022-09-09T18:09:40;18.50;99.90
18189;DHT22;9219;50.396;8.546;2022-09-09T18:12:08;18.40;99.90
18189;DHT22;9219;50.396;8.546;2022-09-09T18:14:35;18.30;99.90
18189;DHT22;9219;50.396;8.546;2022-09-09T18:22:03;18.10;99.90
18189;DHT22;9219;50.396;8.546;2022-09-09T18:24:33;17.90;99.90
18189;DHT22;9219;50.396;8.546;2022-09-09T18:27:02;18.00;99.90
18189;DHT22;9219;50.396;8.546;2022-09-09T18:29:32;18.10;99.90
18189;DHT22;9219;50.396;8.546;2022-09-09T18:32:00;18.00;99.90
18189;DHT22;9219;50.396;8.546;2022-09-09T18:34:28;18.00;99.90
18189;DHT22;9219;50.396;8.546;2022-09-09T18:36:56;18.00;99.90
18189;DHT22;9219;50.396;8.546;2022-09-09T18:44:01;17.80;99.90
18189;DHT22;9219;50.396;8.546;2022-09-09T18:46:32;17.80;99.90
18189;DHT22;9219;50.396;8.546;2022-09-09T18:49:02;17.60;99.90
18189;DHT22;9219;50.396;8.546;2022-09-09T18:51:31;17.60;99.90
18189;DHT22;9219;50.396;8.546;2022-09-09T18:54:05;17.50;99.90
18189;DHT22;9219;50.396;8.546;2022-09-09T18:56:38;17.60;99.90
18189;DHT22;9219;50.396;8.546;2022-09-09T18:59:12;17.70;99.90
18189;DHT22;9219;50.396;8.546;2022-09-09T19:06:26;17.80;99.90
18189;DHT22;9219;50.396;8.546;2022-09-09T19:08:57;17.80;99.90
18189;DHT22;9219;50.396;8.546;2022-09-09T19:11:30;17.50;99.90
18189;DHT22;9219;50.396;8.546;2022-09-09T19:14:01;17.40;99.90
18189;DHT22;9219;50.396;8.546;2022-09-09T19:16:30;17.40;99.90
18189;DHT22;9219;50.396;8.546;2022-09-09T19:18:59;17.40;99.90
18189;DHT22;9219;50.396;8.546;2022-09-09T19:21:30;17.50;99.90
18189;DHT22;9219;50.396;8.546;2022-09-09T19:28:20;17.30;99.90
18189;DHT22;9219;50.396;8.546;2022-09-09T19:30:47;17.30;99.90
18189;DHT22;9219;50.396;8.546;2022-09-09T19:33:15;17.30;99.90
18189;DHT22;9219;50.396;8.546;2022-09-09T19:35:44;17.30;99.90
18189;DHT22;9219;50.396;8.546;2022-09-09T19:38:12;17.30;99.90
18189;DHT22;9219;50.396;8.546;2022-09-09T19:40:40;17.30;99.90
18189;DHT22;9219;50.396;8.546;2022-09-09T19:43:07;17.20;99.90
18189;DHT22;9219;50.396;8.546;2022-09-09T19:48:22;17.30;99.90
18189;DHT22;9219;50.396;8.546;2022-09-09T19:50:52;17.20;99.90
18189;DHT22;9219;50.396;8.546;2022-09-09T19:53:20;17.20;99.90
18189;DHT22;9219;50.396;8.546;2022-09-09T19:55:49;17.10;99.90
18189;DHT22;9219;50.396;8.546;2022-09-09T19:58:17;17.10;99.90
18189;DHT22;9219;50.396;8.546;2022-09-09T20:00:45;17.00;99.90
18189;DHT22;9219;50.396;8.546;2022-09-09T20:03:13;17.00;99.90
18189;DHT22;9219;50.396;8.546;2022-09-09T20:10:26;17.10;99.90